createdAt,value
2022-09-14T00:02:13.006Z,96453.81
2022-09-14T00:04:41.919Z,96452.88
2022-09-14T00:07:08.365Z,96458.09
2022-09-14T00:09:34.739Z,96444.50
2022-09-14T00:12:01.244Z,96454.13
2022-09-14T00:14:27.594Z,96445.78
2022-09-14T00:16:53.988Z,96440.97
2022-09-14T00:19:24.565Z,96438.44
2022-09-14T00:21:52.269Z,96432.78
2022-09-14T00:24:19.139Z,96428.47
2022-09-14T00:26:45.595Z,96430.69
2022-09-14T00:29:11.997Z,96425.72
2022-09-14T00:31:39.106Z,96421.38
2022-09-14T00:34:06.408Z,96417.53
2022-09-14T00:36:33.448Z,96411.72
2022-09-14T00:39:00.532Z,96409.78
2022-09-14T00:41:29.640Z,96418.00
2022-09-14T00:44:22.582Z,96411.41
2022-09-14T00:46:50.142Z,96406.38
2022-09-14T00:49:18.496Z,96396.91
2022-09-14T00:51:52.931Z,96381.47
2022-09-14T00:54:19.436Z,96375.50
2022-09-14T00:56:46.338Z,96365.84
2022-09-14T00:59:15.994Z,96357.78
2022-09-14T01:01:42.380Z,96358.75
2022-09-14T01:04:08.749Z,96364.88
2022-09-14T01:06:44.643Z,96369.88
2022-09-14T01:09:16.821Z,96368.41
2022-09-14T01:11:51.652Z,96364.16
2022-09-14T01:14:25.980Z,96345.31
2022-09-14T01:16:53.020Z,96341.16
2022-09-14T01:19:27.737Z,96338.94
2022-09-14T01:21:56.494Z,96346.28
2022-09-14T01:24:42.704Z,96362.19
2022-09-14T01:27:15.125Z,96406.03
2022-09-14T01:29:51.143Z,96488.59
2022-09-14T01:32:32.781Z,96499.94
2022-09-14T01:35:02.212Z,96510.94
2022-09-14T01:37:41.850Z,96456.72
2022-09-14T01:44:07.352Z,96447.81
2022-09-14T01:46:38.957Z,96449.75
2022-09-14T01:49:32.119Z,96442.16
2022-09-14T01:52:02.618Z,96462.25
2022-09-14T01:54:31.948Z,96479.72
2022-09-14T01:57:02.404Z,96481.84
2022-09-14T01:59:31.945Z,96486.00
2022-09-14T02:02:07.371Z,96473.34
2022-09-14T02:04:52.522Z,96482.84
2022-09-14T02:07:19.361Z,96482.84
2022-09-14T02:09:47.457Z,96486.69
2022-09-14T02:12:14.285Z,96474.34
2022-09-14T02:14:40.678Z,96458.69
2022-09-14T02:17:08.236Z,96453.41
2022-09-14T02:19:37.378Z,96454.09
2022-09-14T02:22:04.093Z,96459.03
2022-09-14T02:24:30.542Z,96453.97
2022-09-14T02:26:58.115Z,96451.66
2022-09-14T02:29:24.530Z,96471.22
2022-09-14T02:31:50.965Z,96478.94
2022-09-14T02:34:36.308Z,96478.28
2022-09-14T02:37:31.989Z,96472.34
2022-09-14T02:40:01.180Z,96473.94
2022-09-14T02:42:27.625Z,96459.19
2022-09-14T02:44:56.964Z,96444.94
2022-09-14T02:47:29.551Z,96431.50
2022-09-14T02:50:25.283Z,96441.72
2022-09-14T02:52:51.953Z,96442.34
2022-09-14T02:55:19.809Z,96439.91
2022-09-14T02:57:58.895Z,96440.72
2022-09-14T03:00:25.391Z,96428.19
2022-09-14T03:02:51.741Z,96427.38
2022-09-14T03:05:18.058Z,96425.78
2022-09-14T03:07:44.408Z,96416.47
2022-09-14T03:10:10.711Z,96408.75
2022-09-14T03:12:38.345Z,96399.78
2022-09-14T03:15:05.505Z,96399.41
2022-09-14T03:17:31.871Z,96405.72
2022-09-14T03:19:58.193Z,96401.88
2022-09-14T03:22:24.528Z,96395.19
2022-09-14T03:24:50.952Z,96384.47
2022-09-14T03:27:17.508Z,96388.84
2022-09-14T03:29:43.801Z,96394.63
2022-09-14T03:32:12.133Z,96391.41
2022-09-14T03:34:38.469Z,96390.78
2022-09-14T03:37:04.936Z,96396.53
2022-09-14T03:39:31.256Z,96402.50
2022-09-14T03:41:57.593Z,96393.16
2022-09-14T03:44:23.929Z,96389.44
2022-09-14T03:46:50.333Z,96378.72
2022-09-14T03:49:16.736Z,96386.09
2022-09-14T03:51:43.084Z,96393.16
2022-09-14T03:54:09.388Z,96391.13
2022-09-14T03:56:35.772Z,96390.16
2022-09-14T03:59:02.091Z,96378.47
2022-09-14T04:01:28.484Z,96378.41
2022-09-14T04:03:55.366Z,96363.56
2022-09-14T04:06:21.684Z,96374.91
2022-09-14T04:08:48.170Z,96355.00
2022-09-14T04:11:16.429Z,96354.31
2022-09-14T04:13:42.909Z,96355.59
2022-09-14T04:16:09.332Z,96359.47
2022-09-14T04:18:35.745Z,96358.47
2022-09-14T04:21:08.020Z,96358.63
2022-09-14T04:23:46.218Z,96358.84
2022-09-14T04:26:22.561Z,96354.13
2022-09-14T04:28:49.038Z,96352.88
2022-09-14T04:31:15.728Z,96351.22
2022-09-14T04:33:45.691Z,96359.13
2022-09-14T04:36:13.397Z,96373.06
2022-09-14T04:38:40.465Z,96370.50
2022-09-14T04:41:11.675Z,96368.78
2022-09-14T04:43:38.194Z,96382.78
2022-09-14T04:46:05.900Z,96389.41
2022-09-14T04:48:35.265Z,96391.09
2022-09-14T04:51:13.691Z,96390.69
2022-09-14T04:53:40.688Z,96407.91
2022-09-14T04:56:08.064Z,96419.19
2022-09-14T04:58:35.307Z,96417.56
2022-09-14T05:01:02.407Z,96401.47
2022-09-14T05:03:28.769Z,96397.91
2022-09-14T05:05:55.120Z,96405.28
2022-09-14T05:08:21.413Z,96404.66
2022-09-14T05:10:47.731Z,96401.28
2022-09-14T05:13:15.243Z,96393.06
2022-09-14T05:15:42.605Z,96389.88
2022-09-14T05:18:08.976Z,96388.56
2022-09-14T05:20:35.327Z,96385.16
2022-09-14T05:23:01.692Z,96393.34
2022-09-14T05:25:28.102Z,96399.97
2022-09-14T05:27:54.404Z,96409.31
2022-09-14T05:30:20.865Z,96401.72
2022-09-14T05:32:47.191Z,96400.19
2022-09-14T05:35:13.525Z,96404.38
2022-09-14T05:37:40.015Z,96398.09
2022-09-14T05:40:08.577Z,96408.69
2022-09-14T05:42:35.280Z,96410.13
2022-09-14T05:45:01.766Z,96405.00
2022-09-14T05:47:33.953Z,96399.56
2022-09-14T05:50:02.338Z,96399.94
2022-09-14T05:52:29.365Z,96389.63
2022-09-14T05:54:56.780Z,96386.91
2022-09-14T05:57:23.105Z,96386.94
2022-09-14T05:59:49.408Z,96389.69
2022-09-14T06:02:18.139Z,96377.28
2022-09-14T06:04:44.744Z,96394.84
2022-09-14T06:07:18.492Z,96406.13
2022-09-14T06:09:45.298Z,96413.75
2022-09-14T06:12:11.648Z,96402.69
2022-09-14T06:14:37.992Z,96399.50
2022-09-14T06:17:05.633Z,96387.56
2022-09-14T06:19:32.045Z,96381.31
2022-09-14T06:21:58.431Z,96384.03
2022-09-14T06:24:24.935Z,96369.69
2022-09-14T06:26:51.360Z,96377.59
2022-09-14T06:29:17.670Z,96383.69
2022-09-14T06:31:44.013Z,96378.38
2022-09-14T06:34:10.345Z,96374.66
2022-09-14T06:36:36.645Z,96371.56
2022-09-14T06:39:02.993Z,96367.06
2022-09-14T06:41:30.482Z,96371.44
2022-09-14T06:43:58.428Z,96359.66
2022-09-14T06:46:29.749Z,96359.97
2022-09-14T06:49:01.252Z,96358.44
2022-09-14T06:51:29.559Z,96349.56
2022-09-14T06:53:57.045Z,96347.06
2022-09-14T06:56:23.563Z,96342.44
2022-09-14T06:58:52.016Z,96336.31
2022-09-14T07:01:19.795Z,96345.97
2022-09-14T07:03:51.400Z,96351.53
2022-09-14T07:06:22.173Z,96355.72
2022-09-14T07:08:49.283Z,96358.59
2022-09-14T07:11:19.549Z,96360.16
2022-09-14T07:13:46.363Z,96361.94
2022-09-14T07:16:13.145Z,96358.81
2022-09-14T07:18:39.959Z,96376.06
2022-09-14T07:21:09.792Z,96376.88
2022-09-14T07:23:37.788Z,96373.72
2022-09-14T07:26:11.557Z,96374.69
2022-09-14T07:28:38.949Z,96376.00
2022-09-14T07:31:06.109Z,96375.63
2022-09-14T07:33:32.633Z,96365.81
2022-09-14T07:36:05.748Z,96364.66
2022-09-14T07:38:50.946Z,96372.09
2022-09-14T07:41:18.579Z,96370.28
2022-09-14T07:43:47.952Z,96368.59
2022-09-14T07:46:14.353Z,96376.50
2022-09-14T07:48:40.749Z,96383.34
2022-09-14T07:51:08.006Z,96390.69
2022-09-14T07:53:38.990Z,96388.97
2022-09-14T07:56:05.922Z,96394.06
2022-09-14T07:58:32.240Z,96404.16
2022-09-14T08:01:02.790Z,96399.09
2022-09-14T08:03:29.261Z,96390.19
2022-09-14T08:05:59.903Z,96401.06
2022-09-14T08:08:27.595Z,96403.81
2022-09-14T08:10:54.063Z,96419.53
2022-09-14T08:13:20.456Z,96422.94
2022-09-14T08:15:47.209Z,96410.00
2022-09-14T08:18:14.836Z,96420.66
2022-09-14T08:20:41.139Z,96420.25
2022-09-14T08:23:07.438Z,96431.72
2022-09-14T08:25:33.771Z,96443.66
2022-09-14T08:28:00.136Z,96446.28
2022-09-14T08:30:26.452Z,96449.38
2022-09-14T08:32:52.712Z,96448.81
2022-09-14T08:35:30.882Z,96452.63
2022-09-14T08:38:05.409Z,96453.97
2022-09-14T08:40:31.822Z,96452.81
2022-09-14T08:42:58.987Z,96452.38
2022-09-14T08:45:25.530Z,96462.69
2022-09-14T08:47:52.372Z,96469.00
2022-09-14T08:50:20.738Z,96476.91
2022-09-14T08:52:48.310Z,96472.09
2022-09-14T08:55:34.457Z,96467.63
2022-09-14T08:58:10.396Z,96453.03
2022-09-14T09:00:47.650Z,96447.47
2022-09-14T09:03:52.266Z,96444.63
2022-09-14T09:06:23.119Z,96447.88
2022-09-14T09:09:14.070Z,96438.03
2022-09-14T09:11:43.965Z,96428.34
2022-09-14T09:14:29.787Z,96435.84
2022-09-14T09:16:59.074Z,96456.47
2022-09-14T09:19:43.966Z,96468.13
2022-09-14T09:24:45.662Z,96471.16
2022-09-14T09:27:13.836Z,96466.00
2022-09-14T09:29:40.743Z,96459.34
2022-09-14T09:32:24.041Z,96444.00
2022-09-14T09:35:22.080Z,96441.94
2022-09-14T09:38:00.953Z,96428.44
2022-09-14T09:40:44.842Z,96428.22
2022-09-14T09:43:28.950Z,96429.56
2022-09-14T09:46:07.471Z,96416.47
2022-09-14T09:48:42.047Z,96408.91
2022-09-14T09:51:34.616Z,96409.44
2022-09-14T09:54:12.954Z,96384.94
2022-09-14T09:56:50.828Z,96389.22
2022-09-14T09:59:40.344Z,96385.28
2022-09-14T10:02:33.031Z,96381.00
2022-09-14T10:04:59.479Z,96389.53
2022-09-14T10:07:27.590Z,96393.66
2022-09-14T10:10:23.741Z,96386.59
2022-09-14T10:12:53.121Z,96387.06
2022-09-14T10:15:33.605Z,96387.28
2022-09-14T10:18:12.177Z,96376.94
2022-09-14T10:20:44.931Z,96385.81
2022-09-14T10:23:19.264Z,96377.47
2022-09-14T10:25:47.531Z,96373.09
2022-09-14T10:28:30.892Z,96370.28
2022-09-14T10:31:15.311Z,96370.28
2022-09-14T10:33:42.560Z,96358.50
2022-09-14T10:36:17.207Z,96341.63
2022-09-14T10:38:52.779Z,96345.13
2022-09-14T10:41:31.153Z,96336.03
2022-09-14T10:44:19.455Z,96341.56
2022-09-14T10:47:02.594Z,96336.31
2022-09-14T10:49:37.763Z,96328.66
2022-09-14T10:52:19.648Z,96314.28
2022-09-14T10:55:32.009Z,96309.13
2022-09-14T10:58:30.282Z,96301.84
2022-09-14T11:01:16.378Z,96304.44
2022-09-14T11:04:04.558Z,96305.44
2022-09-14T11:06:37.506Z,96294.75
2022-09-14T11:09:18.636Z,96288.53
2022-09-14T11:12:13.073Z,96290.00
2022-09-14T11:14:57.971Z,96293.81
2022-09-14T11:17:42.240Z,96285.75
2022-09-14T11:20:26.583Z,96290.22
2022-09-14T11:23:07.381Z,96282.22
2022-09-14T11:25:43.015Z,96290.88
2022-09-14T11:28:27.712Z,96286.56
2022-09-14T11:31:06.409Z,96283.19
2022-09-14T11:33:41.018Z,96289.16
2022-09-14T11:36:16.606Z,96283.66
2022-09-14T11:38:56.216Z,96270.53
2022-09-14T11:41:55.040Z,96286.00
2022-09-14T11:44:31.597Z,96280.16
2022-09-14T11:47:04.259Z,96283.41
2022-09-14T11:49:55.502Z,96279.03
2022-09-14T11:52:21.839Z,96278.84
2022-09-14T11:54:50.126Z,96278.31
2022-09-14T11:57:20.373Z,96286.34
2022-09-14T11:59:55.404Z,96286.34
2022-09-14T12:02:27.630Z,96291.22
2022-09-14T12:05:10.210Z,96284.47
2022-09-14T12:07:39.646Z,96287.41
2022-09-14T12:10:15.367Z,96279.47
2022-09-14T12:12:41.777Z,96293.22
2022-09-14T12:15:37.794Z,96298.25
2022-09-14T12:18:07.418Z,96295.31
2022-09-14T12:21:01.749Z,96299.66
2022-09-14T12:23:37.203Z,96304.63
2022-09-14T12:26:06.559Z,96304.56
2022-09-14T12:28:36.045Z,96315.03
2022-09-14T12:31:05.417Z,96320.09
2022-09-14T12:33:32.144Z,96330.38
2022-09-14T12:35:59.757Z,96336.59
2022-09-14T12:38:29.233Z,96347.38
2022-09-14T12:40:56.941Z,96345.53
2022-09-14T12:43:35.257Z,96359.34
2022-09-14T12:46:07.850Z,96357.69
2022-09-14T12:48:49.440Z,96354.91
2022-09-14T12:51:15.913Z,96361.09
2022-09-14T12:53:43.614Z,96354.94
2022-09-14T12:56:17.169Z,96350.34
2022-09-14T12:58:50.934Z,96354.31
2022-09-14T13:01:20.461Z,96367.78
2022-09-14T13:03:48.621Z,96383.44
2022-09-14T13:06:15.764Z,96395.25
2022-09-14T13:08:46.517Z,96405.72
2022-09-14T13:11:20.401Z,96427.06
2022-09-14T13:13:47.764Z,96416.94
2022-09-14T13:16:17.348Z,96431.75
2022-09-14T13:18:43.837Z,96427.41
2022-09-14T13:21:21.051Z,96425.22
2022-09-14T13:23:47.774Z,96425.09
2022-09-14T13:26:19.554Z,96423.00
2022-09-14T13:28:47.066Z,96420.41
2022-09-14T13:31:16.815Z,96417.03
2022-09-14T13:33:46.886Z,96421.06
2022-09-14T13:36:16.412Z,96408.03
2022-09-14T13:38:43.025Z,96397.06
2022-09-14T13:41:11.508Z,96398.34
2022-09-14T13:43:38.136Z,96391.59
2022-09-14T13:46:07.178Z,96388.53
2022-09-14T13:48:33.860Z,96385.94
2022-09-14T13:51:00.195Z,96379.97
2022-09-14T13:53:36.380Z,96371.75
2022-09-14T13:56:21.347Z,96359.03
2022-09-14T13:58:48.804Z,96351.63
2022-09-14T14:01:41.624Z,96352.91
2022-09-14T14:04:33.505Z,96352.59
2022-09-14T14:07:05.060Z,96350.00
2022-09-14T14:09:38.937Z,96346.94
2022-09-14T14:12:05.448Z,96335.97
2022-09-14T14:14:31.835Z,96316.66
2022-09-14T14:17:10.247Z,96322.75
2022-09-14T14:19:36.763Z,96337.22
2022-09-14T14:22:15.482Z,96341.88
2022-09-14T14:25:09.226Z,96341.69
2022-09-14T14:27:29.172Z,96353.91
2022-09-14T14:29:55.973Z,96352.56
2022-09-14T14:32:22.635Z,96357.72
2022-09-14T14:34:49.022Z,96355.03
2022-09-14T14:37:15.348Z,96364.66
2022-09-14T14:39:44.422Z,96363.59
2022-09-14T14:42:15.432Z,96368.25
2022-09-14T14:44:42.325Z,96365.84
2022-09-14T14:47:10.413Z,96354.53
2022-09-14T14:49:36.889Z,96361.19
2022-09-14T14:52:03.348Z,96362.63
2022-09-14T14:54:29.668Z,96361.03
2022-09-14T14:56:56.313Z,96352.94
2022-09-14T14:59:22.599Z,96346.50
2022-09-14T15:01:49.828Z,96333.78
2022-09-14T15:04:16.168Z,96328.69
2022-09-14T15:06:42.501Z,96322.56
2022-09-14T15:09:19.943Z,96320.09
2022-09-14T15:11:47.131Z,96318.03
2022-09-14T15:14:14.339Z,96303.97
2022-09-14T15:16:41.204Z,96295.75
2022-09-14T15:19:07.561Z,96279.22
2022-09-14T15:21:33.971Z,96269.38
2022-09-14T15:24:01.277Z,96259.44
2022-09-14T15:26:27.919Z,96256.06
2022-09-14T15:28:54.237Z,96249.41
2022-09-14T15:31:20.931Z,96254.06
2022-09-14T15:33:47.304Z,96259.75
2022-09-14T15:36:13.953Z,96249.34
2022-09-14T15:38:40.444Z,96240.78
2022-09-14T15:41:10.818Z,96232.81
2022-09-14T15:43:37.157Z,96234.25
2022-09-14T15:46:04.058Z,96221.63
2022-09-14T15:48:30.516Z,96229.94
2022-09-14T15:51:00.554Z,96226.22
2022-09-14T15:53:27.117Z,96213.56
2022-09-14T15:55:53.461Z,96213.25
2022-09-14T15:58:19.771Z,96198.13
2022-09-14T16:00:46.124Z,96194.00
2022-09-14T16:03:12.874Z,96197.06
2022-09-14T16:05:39.578Z,96204.41
2022-09-14T16:08:06.208Z,96201.34
2022-09-14T16:10:32.688Z,96194.31
2022-09-14T16:12:59.037Z,96203.75
2022-09-14T16:15:25.412Z,96217.06
2022-09-14T16:17:52.551Z,96216.66
2022-09-14T16:20:19.879Z,96225.75
2022-09-14T16:22:47.577Z,96221.34
2022-09-14T16:25:14.492Z,96225.06
2022-09-14T16:27:40.948Z,96222.06
2022-09-14T16:30:08.171Z,96228.84
2022-09-14T16:32:34.834Z,96236.44
2022-09-14T16:35:04.785Z,96229.16
2022-09-14T16:37:34.217Z,96226.75
2022-09-14T16:40:00.833Z,96226.28
2022-09-14T16:42:27.222Z,96239.19
2022-09-14T16:44:53.606Z,96233.25
2022-09-14T16:47:19.984Z,96239.41
2022-09-14T16:49:46.299Z,96248.16
2022-09-14T16:52:12.624Z,96248.16
2022-09-14T16:54:38.927Z,96256.06
2022-09-14T16:57:05.325Z,96253.38
2022-09-14T16:59:31.777Z,96260.06
2022-09-14T17:01:58.124Z,96269.03
2022-09-14T17:04:24.798Z,96270.81
2022-09-14T17:06:51.954Z,96266.13
2022-09-14T17:09:20.474Z,96273.56
2022-09-14T17:11:48.376Z,96275.28
2022-09-14T17:14:15.785Z,96282.25
2022-09-14T17:16:42.610Z,96279.03
2022-09-14T17:19:09.659Z,96281.16
2022-09-14T17:21:37.424Z,96277.28
2022-09-14T17:24:04.439Z,96279.06
2022-09-14T17:26:30.785Z,96296.34
2022-09-14T17:28:57.843Z,96290.38
2022-09-14T17:31:25.744Z,96285.56
2022-09-14T17:33:53.032Z,96287.81
2022-09-14T17:36:19.401Z,96287.50
2022-09-14T17:38:45.937Z,96285.50
2022-09-14T17:41:14.168Z,96276.50
2022-09-14T17:43:41.123Z,96282.75
2022-09-14T17:46:08.186Z,96282.44
2022-09-14T17:48:35.557Z,96283.59
2022-09-14T17:51:09.544Z,96284.13
2022-09-14T17:53:39.618Z,96286.97
2022-09-14T17:56:06.836Z,96289.06
2022-09-14T17:58:33.252Z,96287.00
2022-09-14T18:01:06.964Z,96297.13
2022-09-14T18:03:33.362Z,96291.50
2022-09-14T18:05:59.964Z,96295.03
2022-09-14T18:08:26.720Z,96291.00
2022-09-14T18:10:53.050Z,96289.41
2022-09-14T18:13:19.383Z,96295.97
2022-09-14T18:15:45.754Z,96285.97
2022-09-14T18:18:12.309Z,96284.53
2022-09-14T18:20:38.636Z,96282.97
2022-09-14T18:23:05.013Z,96286.00
2022-09-14T18:25:31.312Z,96289.63
2022-09-14T18:27:57.647Z,96293.28
2022-09-14T18:30:23.981Z,96293.38
2022-09-14T18:32:50.965Z,96288.34
2022-09-14T18:35:17.320Z,96286.56
2022-09-14T18:37:43.753Z,96294.19
2022-09-14T18:40:10.349Z,96291.78
2022-09-14T18:42:36.765Z,96288.75
2022-09-14T18:45:03.189Z,96288.41
2022-09-14T18:47:29.654Z,96287.78
2022-09-14T18:49:55.968Z,96292.94
2022-09-14T18:52:22.337Z,96293.69
2022-09-14T18:54:48.653Z,96289.31
2022-09-14T18:57:17.542Z,96286.25
2022-09-14T18:59:43.840Z,96289.69
2022-09-14T19:02:10.663Z,96291.59
2022-09-14T19:04:37.727Z,96295.31
2022-09-14T19:07:04.784Z,96290.84
2022-09-14T19:09:31.395Z,96294.22
2022-09-14T19:11:57.700Z,96296.16
2022-09-14T19:14:24.077Z,96295.38
2022-09-14T19:16:50.479Z,96303.59
2022-09-14T19:19:16.882Z,96300.59
2022-09-14T19:21:44.232Z,96301.75
2022-09-14T19:24:12.127Z,96303.03
2022-09-14T19:26:44.600Z,96291.94
2022-09-14T19:29:12.049Z,96299.00
2022-09-14T19:31:38.465Z,96287.25
2022-09-14T19:34:05.127Z,96289.84
2022-09-14T19:36:33.597Z,96279.84
2022-09-14T19:39:01.890Z,96288.22
2022-09-14T19:41:28.819Z,96278.59
2022-09-14T19:43:55.121Z,96289.25
2022-09-14T19:46:23.306Z,96304.69
2022-09-14T19:48:50.165Z,96307.50
2022-09-14T19:51:17.660Z,96314.75
2022-09-14T19:53:45.833Z,96319.47
2022-09-14T19:56:13.525Z,96329.09
2022-09-14T19:58:44.172Z,96325.72
2022-09-14T20:01:11.251Z,96338.53
2022-09-14T20:03:38.854Z,96337.44
2022-09-14T20:06:06.656Z,96324.28
2022-09-14T20:08:33.247Z,96333.59
2022-09-14T20:11:03.883Z,96332.03
2022-09-14T20:13:30.213Z,96336.25
2022-09-14T20:15:56.642Z,96331.44
2022-09-14T20:18:23.008Z,96330.94
2022-09-14T20:20:49.332Z,96338.22
2022-09-14T20:23:15.676Z,96340.94
2022-09-14T20:25:42.036Z,96341.81
2022-09-14T20:28:08.361Z,96339.84
2022-09-14T20:30:34.733Z,96339.22
2022-09-14T20:33:01.054Z,96340.75
2022-09-14T20:35:27.620Z,96342.50
2022-09-14T20:37:54.041Z,96329.63
2022-09-14T20:40:20.444Z,96332.53
2022-09-14T20:42:46.857Z,96336.53
2022-09-14T20:45:15.130Z,96325.78
2022-09-14T20:47:42.513Z,96329.31
2022-09-14T20:50:08.924Z,96335.91
2022-09-14T20:52:35.789Z,96344.94
2022-09-14T20:55:02.150Z,96341.22
2022-09-14T20:57:28.460Z,96348.63
2022-09-14T20:59:54.902Z,96345.06
2022-09-14T21:02:21.339Z,96352.63
2022-09-14T21:04:47.953Z,96337.50
2022-09-14T21:07:14.303Z,96342.50
2022-09-14T21:09:40.661Z,96347.78
2022-09-14T21:12:11.501Z,96338.00
2022-09-14T21:14:37.803Z,96339.94
2022-09-14T21:17:04.109Z,96349.91
2022-09-14T21:19:31.031Z,96344.09
2022-09-14T21:21:57.469Z,96346.78
2022-09-14T21:24:24.238Z,96348.84
2022-09-14T21:26:50.730Z,96341.56
2022-09-14T21:29:20.216Z,96342.53
2022-09-14T21:31:46.917Z,96341.09
2022-09-14T21:34:13.341Z,96333.06
2022-09-14T21:36:41.026Z,96330.16
2022-09-14T21:39:11.629Z,96334.72
2022-09-14T21:41:38.867Z,96328.44
2022-09-14T21:44:05.603Z,96322.25
2022-09-14T21:46:31.995Z,96327.94
2022-09-14T21:48:58.437Z,96325.72
2022-09-14T21:51:35.076Z,96331.38
2022-09-14T21:54:02.951Z,96335.88
2022-09-14T21:56:30.432Z,96324.81
2022-09-14T21:58:58.139Z,96329.94
2022-09-14T22:01:24.896Z,96328.34
2022-09-14T22:03:51.968Z,96330.38
2022-09-14T22:06:19.155Z,96342.72
2022-09-14T22:08:46.362Z,96348.22
2022-09-14T22:11:21.184Z,96348.84
2022-09-14T22:13:58.545Z,96358.69
2022-09-14T22:16:27.200Z,96365.63
2022-09-14T22:18:57.556Z,96365.13
2022-09-14T22:21:27.060Z,96361.41
2022-09-14T22:23:56.233Z,96364.59
2022-09-14T22:26:23.525Z,96367.84
2022-09-14T22:28:51.563Z,96358.66
2022-09-14T22:31:20.468Z,96353.69
2022-09-14T22:33:47.581Z,96360.75
2022-09-14T22:36:14.984Z,96372.59
2022-09-14T22:38:42.261Z,96379.44
2022-09-14T22:41:11.805Z,96384.09
2022-09-14T22:43:39.896Z,96380.31
2022-09-14T22:46:07.724Z,96388.56
2022-09-14T22:48:35.137Z,96380.25
2022-09-14T22:51:01.673Z,96387.56
2022-09-14T22:53:29.469Z,96386.97
2022-09-14T22:55:56.615Z,96402.03
2022-09-14T22:58:26.030Z,96404.56
2022-09-14T23:00:53.359Z,96408.66
2022-09-14T23:03:20.413Z,96410.81
2022-09-14T23:05:55.556Z,96400.94
2022-09-14T23:08:22.417Z,96401.94
2022-09-14T23:10:49.817Z,96400.19
2022-09-14T23:13:16.708Z,96394.41
2022-09-14T23:15:43.627Z,96401.94
2022-09-14T23:18:10.648Z,96402.59
2022-09-14T23:20:38.905Z,96391.31
2022-09-14T23:23:05.881Z,96401.94
2022-09-14T23:25:40.603Z,96400.34
2022-09-14T23:28:10.765Z,96396.47
2022-09-14T23:30:37.770Z,96396.16
2022-09-14T23:33:04.669Z,96390.84
2022-09-14T23:35:33.667Z,96384.94
2022-09-14T23:38:02.531Z,96380.91
2022-09-14T23:40:29.033Z,96376.31
2022-09-14T23:42:55.479Z,96380.00
2022-09-14T23:45:21.890Z,96390.44
2022-09-14T23:47:48.330Z,96379.38
2022-09-14T23:50:15.476Z,96375.97
2022-09-14T23:52:42.202Z,96378.66
2022-09-14T23:55:09.025Z,96373.53
2022-09-14T23:57:36.605Z,96366.75
